Time;durP1;ratioP1;P1;durP2;ratioP2;P2;SDS_P1;SDS_P2;PMS_P1;PMS_P2;Temp;Humidity;BMP_temperature;BMP_pressure;BME280_temperature;BME280_humidity;BME280_pressure;Samples;Min_cycle;Max_cycle;Signal;HPM_P1;HPM_P2
2022/03/13 05:22:35;;;;;;;16.30;9.23;;;;;;;0.47;81.55;100281.66;5129396;27;20153;-70
2022/03/13 05:25:00;;;;;;;18.42;10.18;;;;;;;0.44;82.44;100281.03;5129924;28;20043;-70
2022/03/13 05:27:26;;;;;;;17.42;10.57;;;;;;;0.42;81.92;100288.16;5090958;28;20054;-70
2022/03/13 05:29:51;;;;;;;18.08;10.50;;;;;;;0.39;82.51;100297.09;5090898;28;20046;-70
2022/03/13 05:32:18;;;;;;;19.30;10.52;;;;;;;0.29;83.54;100290.81;5108862;28;20404;-70
2022/03/13 05:34:47;;;;;;;16.10;11.50;;;;;;;0.37;83.48;100296.34;5135340;22;20438;-70
2022/03/13 05:37:12;;;;;;;15.85;10.93;;;;;;;0.36;82.79;100291.22;5068692;28;20046;-70
2022/03/13 05:39:38;;;;;;;21.90;12.40;;;;;;;0.40;84.07;100297.94;5101320;28;20033;-70
2022/03/13 05:42:05;;;;;;;17.92;10.68;;;;;;;0.41;83.02;100302.22;5068231;28;20049;-71
2022/03/13 05:44:31;;;;;;;18.13;11.20;;;;;;;0.42;83.12;100302.09;5076951;28;20300;-71
2022/03/13 05:46:56;;;;;;;23.38;12.57;;;;;;;0.41;83.51;100307.47;5087574;28;20492;-70
2022/03/13 05:49:22;;;;;;;19.70;10.93;;;;;;;0.31;84.40;100309.03;5087395;28;20048;-71
2022/03/13 05:51:48;;;;;;;17.73;10.65;;;;;;;0.31;84.85;100309.03;5088352;28;20481;-71
2022/03/13 05:54:14;;;;;;;16.73;10.77;;;;;;;0.37;83.87;100316.47;5088453;28;20086;-71
2022/03/13 05:56:39;;;;;;;14.95;10.05;;;;;;;0.36;84.03;100313.00;5088463;28;20035;-71
2022/03/13 05:59:07;;;;;;;18.85;11.70;;;;;;;0.34;84.30;100327.19;5088496;28;20558;-71
2022/03/13 06:01:33;;;;;;;22.25;12.10;;;;;;;0.31;84.38;100317.72;5088156;28;20037;-72
2022/03/13 06:03:59;;;;;;;20.00;11.40;;;;;;;0.37;84.12;100324.34;5086838;28;20044;-71
2022/03/13 06:06:24;;;;;;;16.55;11.60;;;;;;;0.37;83.93;100329.56;5088360;28;20566;-71
2022/03/13 06:08:50;;;;;;;18.00;10.85;;;;;;;0.31;83.71;100330.84;5088362;28;20060;-71
2022/03/13 06:11:15;;;;;;;19.00;10.70;;;;;;;0.38;83.57;100344.34;5088117;28;20028;-71
2022/03/13 06:13:41;;;;;;;16.52;10.55;;;;;;;0.47;82.56;100344.56;5087833;28;20036;-71
2022/03/13 06:16:07;;;;;;;16.02;10.02;;;;;;;0.55;81.79;100344.03;5088222;28;20082;-70
2022/03/13 06:18:32;;;;;;;18.45;10.82;;;;;;;0.65;81.67;100350.31;5088453;28;20090;-71
2022/03/13 06:20:58;;;;;;;18.48;10.95;;;;;;;0.73;82.00;100348.00;5088120;28;20439;-70
2022/03/13 06:23:24;;;;;;;16.65;10.27;;;;;;;0.62;82.68;100345.28;5087655;28;20037;-70
2022/03/13 06:25:50;;;;;;;15.98;10.15;;;;;;;0.59;83.08;100348.13;5087727;28;20365;-70
2022/03/13 06:28:19;;;;;;;16.38;10.43;;;;;;;0.66;83.00;100344.13;5088102;28;20029;-70
2022/03/13 06:30:44;;;;;;;18.77;10.38;;;;;;;0.86;83.08;100355.00;5087941;28;20040;-70
2022/03/13 06:33:10;;;;;;;17.77;11.43;;;;;;;0.99;82.30;100353.19;5078399;28;20093;-70
2022/03/13 06:35:36;;;;;;;16.35;11.05;;;;;;;1.12;81.85;100353.97;5074100;28;20397;-70
2022/03/13 06:38:01;;;;;;;18.67;9.98;;;;;;;1.26;80.87;100355.59;5074172;28;20083;-70
2022/03/13 06:40:28;;;;;;;15.05;9.90;;;;;;;1.40;80.67;100347.56;5074026;28;20040;-70
2022/03/13 06:42:58;;;;;;;15.95;10.25;;;;;;;1.59;80.41;100352.31;5073810;28;20033;-70
2022/03/13 06:45:24;;;;;;;16.73;11.63;;;;;;;1.77;80.14;100342.22;5074111;28;20131;-71
2022/03/13 06:47:50;;;;;;;14.90;9.35;;;;;;;1.89;79.28;100344.78;5074069;28;20310;-70
2022/03/13 06:50:18;;;;;;;16.80;10.25;;;;;;;2.04;78.13;100341.94;5073948;28;20040;-71
2022/03/13 06:52:45;;;;;;;17.25;10.25;;;;;;;2.12;79.15;100350.06;5073604;28;20477;-70
2022/03/13 06:55:14;;;;;;;16.85;10.15;;;;;;;2.36;78.39;100352.63;5072553;28;20089;-70
2022/03/13 06:57:41;;;;;;;18.27;11.25;;;;;;;2.37;78.80;100362.19;5073830;28;20497;-70
2022/03/13 07:00:07;;;;;;;16.15;10.35;;;;;;;2.59;77.57;100356.09;5073739;28;20516;-72
2022/03/13 07:02:33;;;;;;;16.45;10.23;;;;;;;2.68;78.26;100358.03;5072258;28;20033;-71
2022/03/13 07:04:59;;;;;;;13.95;9.75;;;;;;;2.84;76.94;100362.91;5073954;28;20142;-71
2022/03/13 07:07:25;;;;;;;17.30;10.88;;;;;;;3.29;74.99;100358.41;5106334;28;20037;-72
2022/03/13 07:09:51;;;;;;;14.45;9.30;;;;;;;3.57;74.29;100366.69;5073612;28;20503;-71
2022/03/13 07:12:19;;;;;;;17.23;10.10;;;;;;;3.91;71.54;100354.19;5073369;28;20025;-71
2022/03/13 07:14:48;;;;;;;19.48;10.38;;;;;;;4.01;69.60;100353.31;5073375;28;20111;-71
2022/03/13 07:17:17;;;;;;;18.98;11.45;;;;;;;4.17;69.00;100344.94;5073577;28;20081;-72
2022/03/13 07:19:44;;;;;;;14.63;9.50;;;;;;;4.32;68.74;100353.38;5073496;28;20035;-71
2022/03/13 07:22:14;;;;;;;16.02;10.23;;;;;;;4.37;67.48;100338.00;5105638;28;20036;-71
2022/03/13 07:24:41;;;;;;;14.02;9.73;;;;;;;4.59;68.82;100345.72;5073241;28;20097;-71
2022/03/13 07:27:09;;;;;;;12.88;9.43;;;;;;;4.61;69.17;100341.13;5073368;28;20039;-71
2022/03/13 07:29:35;;;;;;;16.48;10.13;;;;;;;4.76;68.84;100340.78;5073315;28;20043;-72
2022/03/13 07:32:01;;;;;;;15.07;9.90;;;;;;;4.98;65.64;100335.31;5073009;28;20040;-72
2022/03/13 07:34:28;;;;;;;15.50;10.02;;;;;;;5.30;65.15;100336.91;5073608;28;20047;-72
2022/03/13 07:36:54;;;;;;;22.90;10.88;;;;;;;5.59;63.39;100332.44;5071881;28;20131;-70
2022/03/13 07:39:21;;;;;;;14.60;9.77;;;;;;;5.79;61.98;100328.00;5071813;28;20131;-71
2022/03/13 07:41:48;;;;;;;13.35;9.38;;;;;;;5.91;61.71;100318.13;5072649;28;20041;-70
2022/03/13 07:44:14;;;;;;;14.98;9.80;;;;;;;6.13;60.25;100322.25;5072022;28;20056;-70
2022/03/13 07:46:40;;;;;;;14.15;10.00;;;;;;;6.33;60.01;100313.31;5069051;28;20036;-70
2022/03/13 07:49:05;;;;;;;15.57;10.15;;;;;;;6.56;59.41;100316.44;5072617;28;20036;-70
2022/03/13 07:51:34;;;;;;;18.48;11.98;;;;;;;6.71;58.71;100317.59;5072329;28;20037;-70
2022/03/13 07:54:00;;;;;;;;;;;;;;;6.68;58.24;100323.22;5072544;28;20032;-70
2022/03/13 07:56:25;;;;;;;15.30;10.23;;;;;;;6.40;58.82;100319.72;5072473;28;20283;-70
2022/03/13 07:58:51;;;;;;;15.30;10.45;;;;;;;6.40;59.51;100318.88;5071399;28;20040;-71
2022/03/13 08:01:16;;;;;;;16.25;10.70;;;;;;;6.20;60.42;100321.56;5071148;28;20048;-72
2022/03/13 08:03:44;;;;;;;14.77;10.77;;;;;;;6.40;61.29;100321.53;5071391;28;20042;-72
2022/03/13 08:06:10;;;;;;;14.15;9.63;;;;;;;6.43;62.06;100313.28;5071156;28;20130;-72
2022/03/13 08:08:36;;;;;;;17.92;11.48;;;;;;;6.80;58.20;100311.44;5054378;28;20068;-71
2022/03/13 08:11:01;;;;;;;16.92;10.63;;;;;;;6.85;58.40;100310.19;5072184;28;20127;-71
2022/03/13 08:13:27;;;;;;;15.05;10.60;;;;;;;7.23;55.85;100306.44;5071224;28;20037;-73
2022/03/13 08:15:53;;;;;;;15.70;10.00;;;;;;;7.37;56.86;100307.72;5072073;28;20033;-72
2022/03/13 08:18:19;;;;;;;16.58;10.13;;;;;;;7.70;53.90;100295.63;5072291;28;20060;-71
2022/03/13 08:20:44;;;;;;;15.02;10.63;;;;;;;7.84;53.48;100301.19;5054004;28;20051;-72
2022/03/13 08:23:10;;;;;;;16.40;11.55;;;;;;;8.09;53.67;100298.72;5071760;28;20032;-71
2022/03/13 08:25:36;;;;;;;19.95;12.45;;;;;;;8.09;54.13;100296.09;5071995;28;20051;-71
2022/03/13 08:28:02;;;;;;;16.05;10.18;;;;;;;8.22;51.88;100303.63;5072238;28;20045;-72
2022/03/13 08:30:28;;;;;;;22.58;13.40;;;;;;;8.32;53.15;100307.81;5072312;28;20052;-71
2022/03/13 08:32:56;;;;;;;15.90;10.75;;;;;;;8.56;52.38;100301.03;5071346;28;20040;-73
2022/03/13 08:35:23;;;;;;;16.98;10.98;;;;;;;8.83;52.12;100302.63;5054405;28;20063;-73
2022/03/13 08:37:49;;;;;;;14.70;10.55;;;;;;;9.09;50.35;100289.25;5070834;28;20438;-72
2022/03/13 08:40:15;;;;;;;16.10;10.85;;;;;;;9.34;51.17;100300.78;5071689;28;20052;-69
2022/03/13 08:42:41;;;;;;;15.15;10.27;;;;;;;9.10;51.07;100301.53;5069427;28;20143;-71
2022/03/13 08:45:08;;;;;;;17.52;10.85;;;;;;;9.17;50.58;100307.88;5071409;28;20040;-73
2022/03/13 08:47:34;;;;;;;16.83;11.73;;;;;;;9.17;49.90;100299.88;5070533;28;20045;-69
2022/03/13 08:49:59;;;;;;;14.93;10.88;;;;;;;9.38;49.91;100302.09;5069506;28;20056;-70
2022/03/13 08:52:25;;;;;;;15.20;10.73;;;;;;;9.81;49.86;100295.63;5070464;28;20033;-70
2022/03/13 08:54:51;;;;;;;17.73;10.55;;;;;;;10.01;49.57;100302.28;5071289;28;20020;-70
2022/03/13 08:57:16;;;;;;;15.80;11.05;;;;;;;10.51;48.34;100303.88;5071219;28;20040;-70
2022/03/13 08:59:42;;;;;;;15.38;11.00;;;;;;;10.72;46.79;100297.13;5069948;28;20036;-70
2022/03/13 09:02:09;;;;;;;16.45;11.95;;;;;;;10.64;46.54;100286.50;5068770;28;20111;-70
2022/03/13 09:04:35;;;;;;;15.50;10.55;;;;;;;10.71;46.55;100288.31;5071389;28;20190;-71
2022/03/13 09:07:01;;;;;;;14.30;10.43;;;;;;;10.93;46.17;100293.88;5070165;28;20756;-70
2022/03/13 09:09:27;;;;;;;16.58;10.68;;;;;;;11.00;45.23;100287.66;5071494;28;20040;-74
2022/03/13 09:11:53;;;;;;;15.77;10.98;;;;;;;11.14;46.28;100286.91;5071039;28;20040;-70
2022/03/13 09:14:19;;;;;;;16.38;11.07;;;;;;;11.13;46.91;100281.75;5071241;28;20389;-69
2022/03/13 09:16:45;;;;;;;15.07;10.35;;;;;;;11.10;46.13;100279.44;5071207;28;20513;-70
2022/03/13 09:19:12;;;;;;;16.13;11.00;;;;;;;11.56;44.70;100282.16;5071422;28;20036;-70
2022/03/13 09:21:38;;;;;;;15.27;10.73;;;;;;;11.58;44.76;100275.59;5071193;28;20047;-71
2022/03/13 09:24:07;;;;;;;16.23;10.85;;;;;;;11.73;44.09;100277.50;5071200;28;20115;-70
2022/03/13 09:26:34;;;;;;;14.73;10.45;;;;;;;12.08;43.75;100279.53;5071219;28;20024;-72
2022/03/13 09:29:02;;;;;;;16.08;11.55;;;;;;;12.31;45.36;100281.31;5070939;28;20043;-70
2022/03/13 09:31:27;;;;;;;14.07;9.93;;;;;;;12.61;42.59;100288.31;5069802;28;20036;-71
2022/03/13 09:33:53;;;;;;;16.38;11.20;;;;;;;12.33;43.39;100287.31;5070959;28;20102;-71
2022/03/13 09:36:19;;;;;;;14.18;10.48;;;;;;;12.86;41.90;100293.34;5103728;28;20037;-69
2022/03/13 09:38:45;;;;;;;20.08;11.15;;;;;;;12.99;43.77;100277.47;5069824;28;20433;-69
2022/03/13 09:41:12;;;;;;;15.50;11.15;;;;;;;13.62;40.95;100283.91;5071108;28;20145;-69
2022/03/13 09:43:38;;;;;;;15.65;11.73;;;;;;;13.95;39.50;100276.16;5070590;28;20068;-69
2022/03/13 09:46:04;;;;;;;14.50;10.40;;;;;;;13.86;41.30;100274.66;5069855;28;20044;-69
2022/03/13 09:48:34;;;;;;;14.70;11.15;;;;;;;13.53;41.25;100274.34;5071056;28;20081;-70
2022/03/13 09:51:04;;;;;;;14.95;11.65;;;;;;;13.92;39.43;100283.75;5071360;28;20032;-70
2022/03/13 09:53:35;;;;;;;17.42;11.32;;;;;;;13.93;39.39;100275.53;5070794;28;20044;-71
2022/03/13 09:56:03;;;;;;;15.18;11.05;;;;;;;14.29;38.64;100270.03;5071119;28;20039;-70
2022/03/13 09:58:30;;;;;;;20.00;12.77;;;;;;;13.55;41.36;100266.97;5070966;28;20060;-71
2022/03/13 10:00:57;;;;;;;16.02;12.13;;;;;;;14.37;38.35;100267.19;5069640;28;20378;-71
2022/03/13 10:03:22;;;;;;;17.45;11.93;;;;;;;14.37;38.19;100261.81;5070768;28;20067;-72
2022/03/13 10:05:50;;;;;;;15.00;10.82;;;;;;;15.22;37.94;100269.63;5103399;28;20036;-72
2022/03/13 10:08:17;;;;;;;;;;;;;;;15.36;36.22;100269.44;5073535;28;20033;-71
2022/03/13 10:10:48;;;;;;;14.50;11.05;;;;;;;15.32;36.35;100261.97;5107189;28;20367;-72
2022/03/13 10:13:16;;;;;;;13.93;11.18;;;;;;;15.24;37.49;100262.19;5074728;28;20506;-72
2022/03/13 10:15:48;;;;;;;16.15;11.98;;;;;;;16.20;34.95;100251.91;5074748;28;20031;-72
2022/03/13 10:18:16;;;;;;;15.15;11.68;;;;;;;16.57;34.35;100250.38;5074555;28;20043;-72
2022/03/13 10:20:43;;;;;;;14.68;11.20;;;;;;;17.02;33.06;100251.25;5074444;28;20489;-72
2022/03/13 10:23:16;;;;;;;16.58;11.82;;;;;;;16.95;34.84;100254.97;5074087;28;20040;-70
2022/03/13 10:25:44;;;;;;;14.07;12.20;;;;;;;16.67;34.42;100241.84;5072888;28;20406;-70
2022/03/13 10:28:25;;;;;;;16.45;12.60;;;;;;;16.91;33.43;100243.84;5074457;28;20024;-72
2022/03/13 10:31:00;;;;;;;17.02;12.13;;;;;;;17.35;33.39;100234.06;5074432;28;20036;-73
2022/03/13 10:33:42;;;;;;;15.95;11.80;;;;;;;17.88;33.46;100226.41;5073982;28;20108;-72
2022/03/13 10:36:09;;;;;;;14.68;11.90;;;;;;;18.54;30.29;100227.59;5074233;28;20115;-72
2022/03/13 10:38:35;;;;;;;16.90;12.97;;;;;;;17.97;31.73;100220.72;5074292;28;20442;-71
2022/03/13 10:41:05;;;;;;;15.95;11.90;;;;;;;17.20;33.94;100228.13;5074333;28;20363;-72
2022/03/13 10:43:32;;;;;;;15.40;12.13;;;;;;;17.16;32.11;100232.31;5074003;28;20036;-72
2022/03/13 10:46:00;;;;;;;16.35;11.45;;;;;;;18.04;32.11;100233.09;5065690;28;20558;-72
2022/03/13 10:48:33;;;;;;;15.77;12.23;;;;;;;17.34;34.16;100227.00;5054060;28;20041;-72
2022/03/13 10:51:04;;;;;;;17.85;12.90;;;;;;;17.67;31.69;100228.63;5052811;28;20060;-71
2022/03/13 10:53:31;;;;;;;16.40;12.95;;;;;;;18.02;31.69;100221.72;5053825;28;20436;-72
2022/03/13 10:56:03;;;;;;;16.60;11.87;;;;;;;17.86;32.20;100216.88;5053857;28;20037;-71
2022/03/13 10:58:30;;;;;;;15.50;11.60;;;;;;;18.75;30.83;100210.13;5054289;28;20041;-72
2022/03/13 11:01:05;;;;;;;19.10;13.02;;;;;;;18.74;29.83;100215.75;5053848;28;20020;-71
2022/03/13 11:03:33;;;;;;;15.88;12.60;;;;;;;19.10;29.65;100218.34;5053799;28;20037;-72
2022/03/13 11:05:59;;;;;;;15.15;12.70;;;;;;;18.59;29.61;100206.16;5053867;28;20037;-72
2022/03/13 11:08:26;;;;;;;16.17;11.70;;;;;;;19.36;29.92;100198.22;5053952;28;20036;-72
2022/03/13 11:10:53;;;;;;;14.30;11.75;;;;;;;19.93;28.76;100197.72;5052569;28;20036;-72
2022/03/13 11:13:23;;;;;;;13.60;12.10;;;;;;;20.60;27.24;100187.28;5068748;28;20041;-71
2022/03/13 11:15:50;;;;;;;15.60;12.32;;;;;;;20.89;26.41;100181.88;5053644;28;20115;-72
2022/03/13 11:18:17;;;;;;;16.27;12.93;;;;;;;19.73;28.00;100189.97;5068801;28;20048;-72
2022/03/13 11:20:43;;;;;;;19.25;13.25;;;;;;;20.13;28.06;100186.53;5053624;28;20045;-70
2022/03/13 11:23:09;;;;;;;15.60;12.68;;;;;;;19.47;29.02;100189.31;5053226;28;20067;-70
2022/03/13 11:25:35;;;;;;;16.02;12.70;;;;;;;20.35;27.51;100184.06;5052220;28;20036;-71
2022/03/13 11:28:02;;;;;;;16.15;12.65;;;;;;;18.59;30.10;100186.44;5053323;28;20045;-70
2022/03/13 11:30:36;;;;;;;17.70;12.40;;;;;;;18.56;30.77;100182.31;5053481;28;20048;-71
2022/03/13 11:33:03;;;;;;;16.30;12.80;;;;;;;19.42;28.64;100188.38;5053118;28;20041;-69
2022/03/13 11:35:30;;;;;;;17.50;12.47;;;;;;;19.25;30.88;100180.13;5062757;22;20422;-70
2022/03/13 11:38:08;;;;;;;16.23;12.75;;;;;;;20.66;27.63;100167.38;5033347;28;20379;-70
2022/03/13 11:40:38;;;;;;;16.65;11.73;;;;;;;21.14;26.65;100161.50;5033014;28;20029;-69
2022/03/13 11:43:09;;;;;;;37.92;15.38;;;;;;;21.29;27.37;100162.84;5032566;28;20490;-70
2022/03/13 11:45:38;;;;;;;17.58;11.75;;;;;;;22.27;25.50;100146.97;5031472;28;20084;-70
2022/03/13 11:48:19;;;;;;;13.20;11.57;;;;;;;21.34;25.94;100149.41;5032947;28;20043;-69
2022/03/13 11:50:58;;;;;;;16.10;11.90;;;;;;;21.17;26.43;100146.66;5032909;28;20472;-70
2022/03/13 11:53:28;;;;;;;15.50;10.65;;;;;;;21.47;26.01;100126.56;5032727;28;20037;-70
2022/03/13 11:56:00;;;;;;;13.48;11.05;;;;;;;22.10;25.87;100138.88;5032854;28;20029;-70
2022/03/13 11:58:48;;;;;;;12.85;11.18;;;;;;;22.58;25.40;100129.13;5032622;28;20087;-70
2022/03/13 12:01:19;;;;;;;16.48;12.60;;;;;;;22.98;24.49;100131.47;5031302;28;20041;-70
2022/03/13 12:04:14;;;;;;;16.85;11.68;;;;;;;22.55;24.26;100132.34;5030871;28;20083;-70
2022/03/13 12:06:48;;;;;;;15.73;12.80;;;;;;;21.42;26.42;100123.78;5032596;28;20126;-70
2022/03/13 12:09:16;;;;;;;14.40;12.07;;;;;;;21.66;26.39;100120.63;5031433;28;20037;-70
2022/03/13 12:11:50;;;;;;;16.17;12.00;;;;;;;22.45;25.34;100109.47;5032173;28;20068;-69
2022/03/13 12:14:19;;;;;;;15.13;11.70;;;;;;;21.77;26.12;100115.34;5032443;28;20041;-70
2022/03/13 12:16:46;;;;;;;13.68;11.55;;;;;;;22.75;24.88;100105.41;5031097;28;20532;-70
2022/03/13 12:19:19;;;;;;;13.73;11.52;;;;;;;21.53;26.52;100102.03;5032284;28;20029;-70
2022/03/13 12:21:47;;;;;;;13.70;11.55;;;;;;;21.21;27.34;100109.06;5032094;28;20106;-70
2022/03/13 12:24:18;;;;;;;14.75;11.85;;;;;;;22.26;25.82;100102.72;5032106;28;20033;-70
2022/03/13 12:26:45;;;;;;;15.15;11.45;;;;;;;21.93;26.00;100085.47;5032218;28;20040;-71
2022/03/13 12:29:18;;;;;;;15.50;11.35;;;;;;;23.15;24.06;100099.56;5032388;28;20509;-71
2022/03/13 12:31:49;;;;;;;13.55;10.98;;;;;;;23.59;23.34;100093.06;5031681;28;20030;-70
2022/03/13 12:34:24;;;;;;;14.55;11.45;;;;;;;23.08;24.05;100090.78;5031758;28;20072;-70
2022/03/13 12:36:52;;;;;;;12.90;11.50;;;;;;;22.81;24.44;100081.84;5031809;28;20033;-70
2022/03/13 12:39:18;;;;;;;15.60;11.57;;;;;;;22.88;24.00;100077.06;5030201;28;20099;-70
2022/03/13 12:41:44;;;;;;;14.35;12.25;;;;;;;22.93;24.54;100072.50;5031440;28;20037;-70
2022/03/13 12:44:15;;;;;;;16.67;12.38;;;;;;;23.92;22.80;100070.16;5031368;28;20072;-70
2022/03/13 12:46:41;;;;;;;15.15;12.77;;;;;;;22.42;25.46;100069.25;5029621;28;20037;-70
2022/03/13 12:49:10;;;;;;;13.63;11.63;;;;;;;23.35;23.33;100055.44;5031769;28;20037;-70
2022/03/13 12:51:38;;;;;;;16.58;13.23;;;;;;;23.53;23.36;100063.13;5032062;28;20083;-70
2022/03/13 12:54:12;;;;;;;14.02;11.02;;;;;;;24.23;22.04;100049.31;5029977;28;20025;-71
2022/03/13 12:56:45;;;;;;;16.38;12.60;;;;;;;23.54;22.48;100051.19;5028794;28;20032;-70
2022/03/13 12:59:29;;;;;;;15.80;12.45;;;;;;;24.50;21.83;100049.97;5013743;28;20540;-70
2022/03/13 13:02:13;;;;;;;14.55;12.60;;;;;;;23.40;23.68;100052.72;5030918;28;20643;-71
2022/03/13 13:04:40;;;;;;;15.15;11.98;;;;;;;24.16;22.05;100038.69;5028513;28;20033;-71
2022/03/13 13:07:07;;;;;;;;;;;;;;;24.14;22.13;100050.94;5030452;28;20040;-70
2022/03/13 13:09:36;;;;;;;16.42;13.63;;;;;;;24.50;21.76;100049.97;5031174;28;19966;-70
2022/03/13 13:12:03;;;;;;;15.35;12.20;;;;;;;24.43;21.96;100037.69;5030582;28;20032;-69
2022/03/13 13:14:31;;;;;;;16.95;11.93;;;;;;;23.95;22.28;100043.25;5031093;28;20120;-70
2022/03/13 13:16:58;;;;;;;13.88;11.80;;;;;;;23.09;23.24;100031.88;5024483;28;20092;-70
2022/03/13 13:19:27;;;;;;;13.88;11.25;;;;;;;23.34;22.81;100033.94;5031170;28;20044;-70
2022/03/13 13:22:00;;;;;;;15.00;12.35;;;;;;;23.43;22.53;100038.63;5030630;28;20046;-71
2022/03/13 13:24:34;;;;;;;16.92;13.23;;;;;;;23.39;22.78;100029.34;5030936;28;20179;-70
2022/03/13 13:27:02;;;;;;;16.25;11.80;;;;;;;23.03;23.33;100036.47;5028895;28;20037;-71
2022/03/13 13:29:39;;;;;;;15.07;12.68;;;;;;;22.98;23.37;100031.78;5031193;28;20037;-70
2022/03/13 13:32:18;;;;;;;;;;;;;;;23.11;22.72;100030.53;5029895;28;20132;-70
2022/03/13 13:34:59;;;;;;;15.27;12.00;;;;;;;22.75;23.52;100032.09;5028993;28;19924;-70
2022/03/13 13:37:25;;;;;;;16.23;12.15;;;;;;;21.83;24.09;100031.13;5028115;28;20076;-70
2022/03/13 13:40:11;;;;;;;13.77;11.70;;;;;;;21.03;24.95;100023.47;5031100;28;20064;-70
2022/03/13 13:42:39;;;;;;;18.37;12.10;;;;;;;20.79;26.25;100026.34;5031426;28;20091;-70
2022/03/13 13:45:28;;;;;;;16.77;12.18;;;;;;;20.64;25.11;100036.91;5034770;28;20454;-70
2022/03/13 13:48:14;;;;;;;16.20;12.50;;;;;;;20.76;25.59;100021.44;5024093;28;20084;-70
2022/03/13 13:50:40;;;;;;;17.17;12.27;;;;;;;20.70;25.66;100030.53;5032620;28;20104;-70
2022/03/13 13:53:08;;;;;;;16.23;12.05;;;;;;;19.61;27.12;100027.03;5034428;28;20171;-69
2022/03/13 13:55:38;;;;;;;15.35;11.85;;;;;;;19.88;27.06;100021.91;5034481;28;20034;-70
2022/03/13 13:58:23;;;;;;;17.33;12.07;;;;;;;20.04;26.84;100019.28;5034057;28;20045;-69
2022/03/13 14:00:49;;;;;;;15.48;11.50;;;;;;;19.99;26.91;100012.97;5033867;28;20044;-69
2022/03/13 14:03:15;;;;;;;16.58;11.45;;;;;;;19.96;26.74;99999.94;5034540;28;20030;-70
2022/03/13 14:05:42;;;;;;;14.73;11.10;;;;;;;19.73;27.00;100000.81;5034509;28;20025;-70
2022/03/13 14:08:08;;;;;;;16.25;11.02;;;;;;;19.78;26.94;99998.22;5033239;28;20030;-69
2022/03/13 14:10:35;;;;;;;15.40;11.48;;;;;;;19.53;26.99;100006.59;5034478;28;20037;-70
2022/03/13 14:13:01;;;;;;;15.57;11.43;;;;;;;19.55;26.79;100011.75;5032871;28;20026;-69
2022/03/13 14:15:37;;;;;;;12.45;10.48;;;;;;;19.24;27.36;100011.09;5034210;28;20037;-70
2022/03/13 14:18:02;;;;;;;15.32;11.32;;;;;;;19.35;27.29;100018.34;5030801;28;20147;-70
2022/03/13 14:20:28;;;;;;;16.88;11.68;;;;;;;18.83;28.29;100004.72;5033998;28;20597;-70
2022/03/13 14:22:54;;;;;;;15.68;10.27;;;;;;;18.99;28.08;100022.13;5034034;28;20037;-71
2022/03/13 14:25:21;;;;;;;13.32;10.88;;;;;;;18.95;28.27;100015.53;5034074;28;20037;-70
2022/03/13 14:27:47;;;;;;;15.13;11.00;;;;;;;18.84;28.32;100010.94;5034050;28;20057;-71
2022/03/13 14:30:13;;;;;;;14.98;10.88;;;;;;;18.93;27.81;100012.25;5034259;28;20079;-71
2022/03/13 14:32:40;;;;;;;14.82;10.77;;;;;;;18.47;28.82;100016.47;5034209;28;20029;-70
2022/03/13 14:35:06;;;;;;;14.20;10.45;;;;;;;18.37;29.74;100008.13;5034876;28;20173;-70
2022/03/13 14:37:32;;;;;;;15.73;10.68;;;;;;;18.55;28.17;99997.25;5035762;28;20431;-70
2022/03/13 14:39:57;;;;;;;13.68;10.13;;;;;;;18.69;27.88;100006.00;5035597;28;20034;-70
2022/03/13 14:42:23;;;;;;;14.70;10.90;;;;;;;18.63;28.16;100007.72;5032951;28;20052;-71
2022/03/13 14:44:48;;;;;;;17.33;10.65;;;;;;;18.55;28.33;100013.44;5038140;28;20038;-71
2022/03/13 14:47:14;;;;;;;14.00;11.50;;;;;;;18.70;27.67;100004.94;5036924;28;20036;-70
2022/03/13 14:49:40;;;;;;;15.98;10.90;;;;;;;18.42;27.61;100010.94;5035936;28;20048;-70
2022/03/13 14:52:06;;;;;;;15.30;9.70;;;;;;;18.18;28.05;100007.34;5035467;28;20130;-70
2022/03/13 14:54:31;;;;;;;14.80;10.77;;;;;;;17.72;29.39;99998.00;5035615;28;20052;-69
2022/03/13 14:56:57;;;;;;;16.02;10.90;;;;;;;18.23;29.51;100010.19;5034586;28;20521;-70
2022/03/13 14:59:23;;;;;;;14.50;10.32;;;;;;;18.29;28.28;100011.16;5034085;28;20119;-70
2022/03/13 15:01:49;;;;;;;13.75;10.10;;;;;;;18.40;27.62;100015.75;5032411;28;20034;-70
2022/03/13 15:04:15;;;;;;;14.43;10.27;;;;;;;18.50;27.71;100002.53;5033776;28;20038;-70
2022/03/13 15:06:40;;;;;;;13.88;10.80;;;;;;;18.48;27.93;99995.72;5033716;28;20394;-70
2022/03/13 15:09:06;;;;;;;13.18;10.18;;;;;;;18.43;27.49;99996.41;5033881;28;20034;-70
2022/03/13 15:11:33;;;;;;;15.27;10.23;;;;;;;18.28;27.67;99999.53;5033468;28;20029;-71
2022/03/13 15:14:03;;;;;;;14.57;10.48;;;;;;;18.18;27.96;99997.38;5033760;28;20037;-71
2022/03/13 15:16:29;;;;;;;13.52;9.70;;;;;;;18.12;28.08;99992.09;5035062;28;20491;-71
2022/03/13 15:18:55;;;;;;;14.82;9.63;;;;;;;17.77;29.00;99994.63;5032215;28;20072;-70
2022/03/13 15:21:21;;;;;;;14.18;9.45;;;;;;;17.90;28.77;99994.47;5031884;28;20120;-70
2022/03/13 15:23:46;;;;;;;14.50;9.55;;;;;;;18.01;28.33;99993.69;5033103;28;20506;-70
2022/03/13 15:26:12;;;;;;;13.85;9.48;;;;;;;17.81;28.94;99996.66;5033405;28;20052;-69
2022/03/13 15:28:39;;;;;;;13.10;9.98;;;;;;;17.92;28.51;99995.03;5033353;28;20079;-68
2022/03/13 15:31:04;;;;;;;14.43;10.45;;;;;;;17.98;28.43;99991.44;5033420;28;20044;-71
2022/03/13 15:33:30;;;;;;;14.18;9.82;;;;;;;18.00;28.67;99992.06;5032960;28;20033;-69
2022/03/13 15:35:56;;;;;;;12.63;9.00;;;;;;;17.93;28.05;99994.03;5033676;28;20037;-70
2022/03/13 15:38:23;;;;;;;13.02;8.52;;;;;;;17.85;27.93;99991.63;5034128;28;20494;-70
2022/03/13 15:40:50;;;;;;;12.65;8.65;;;;;;;17.80;28.57;99991.47;5015751;28;20069;-70
2022/03/13 15:43:16;;;;;;;11.45;7.95;;;;;;;17.38;29.30;99991.31;5033001;28;20402;-70
2022/03/13 15:45:42;;;;;;;11.70;8.88;;;;;;;17.38;28.81;99982.41;5033996;28;20184;-70
2022/03/13 15:48:09;;;;;;;13.10;8.38;;;;;;;17.21;29.30;99988.38;5032881;28;20112;-71
2022/03/13 15:50:36;;;;;;;12.32;8.77;;;;;;;17.31;29.03;99991.38;5033597;28;20041;-71
2022/03/13 15:53:03;;;;;;;14.68;9.57;;;;;;;17.23;28.90;99986.31;5014992;28;20498;-71
2022/03/13 15:55:29;;;;;;;13.65;9.48;;;;;;;17.13;29.20;99987.84;5032728;28;20120;-70
2022/03/13 15:57:56;;;;;;;12.63;8.70;;;;;;;17.15;29.35;99994.66;5032943;28;20087;-69
2022/03/13 16:00:23;;;;;;;13.20;8.57;;;;;;;17.18;29.46;99988.84;5032686;28;20045;-70
2022/03/13 16:02:48;;;;;;;13.80;9.63;;;;;;;17.25;29.20;99994.16;5032779;28;20046;-70
2022/03/13 16:05:17;;;;;;;12.50;9.00;;;;;;;17.11;29.62;99988.06;5031540;28;20042;-70
2022/03/13 16:07:44;;;;;;;11.50;8.40;;;;;;;17.14;29.48;99993.00;5032480;28;20033;-70
2022/03/13 16:10:10;;;;;;;13.40;8.00;;;;;;;16.98;29.91;99983.66;5032723;28;20112;-70
2022/03/13 16:12:37;;;;;;;12.60;8.30;;;;;;;17.02;29.85;99990.25;5032372;28;20041;-70
2022/03/13 16:15:05;;;;;;;11.60;8.75;;;;;;;17.02;29.75;99987.56;5032393;28;20064;-71
2022/03/13 16:17:31;;;;;;;17.73;9.65;;;;;;;16.93;29.78;99986.16;5031334;28;20044;-71
2022/03/13 16:19:57;;;;;;;13.07;9.40;;;;;;;16.89;29.74;99982.28;5032349;28;20502;-71
2022/03/13 16:22:25;;;;;;;14.43;9.43;;;;;;;16.87;29.39;99992.44;5031888;28;20565;-71
2022/03/13 16:24:52;;;;;;;14.82;10.05;;;;;;;16.75;29.56;99988.81;5032172;28;20060;-70
2022/03/13 16:27:18;;;;;;;11.75;9.02;;;;;;;16.60;30.00;99986.41;5032643;28;20037;-70
2022/03/13 16:29:44;;;;;;;11.95;8.68;;;;;;;16.77;29.47;99997.50;5030761;28;20453;-70
2022/03/13 16:32:15;;;;;;;13.60;8.50;;;;;;;16.60;30.01;99988.28;5031882;28;20022;-69
2022/03/13 16:34:42;;;;;;;13.70;9.30;;;;;;;16.50;30.00;99994.16;5030797;28;20033;-69
2022/03/13 16:37:10;;;;;;;14.27;9.52;;;;;;;16.46;30.03;99990.25;5031875;28;20095;-70
2022/03/13 16:39:36;;;;;;;15.18;8.95;;;;;;;16.17;30.20;99988.97;5014135;28;20058;-70